createdAt,value
2023-02-27T00:02:46.250Z,11.95
2023-02-27T00:06:47.931Z,9.23
2023-02-27T00:10:50.585Z,10.57
2023-02-27T00:18:53.582Z,8.52
2023-02-27T00:22:55.118Z,7.00
2023-02-27T00:26:56.649Z,8.48
2023-02-27T00:30:58.470Z,7.90
2023-02-27T00:35:00.122Z,12.47
2023-02-27T00:39:01.673Z,7.15
2023-02-27T00:43:03.775Z,9.13
2023-02-27T00:47:05.405Z,6.38
2023-02-27T00:51:07.328Z,5.80
2023-02-27T00:55:09.607Z,8.50
2023-02-27T00:59:11.126Z,11.52
2023-02-27T01:03:12.718Z,7.32
2023-02-27T01:07:14.397Z,8.43
2023-02-27T01:11:15.938Z,4.93
2023-02-27T01:15:17.828Z,9.00
2023-02-27T01:19:19.481Z,5.80
2023-02-27T01:23:22.116Z,7.18
2023-02-27T01:27:24.377Z,5.55
2023-02-27T01:31:26.258Z,7.80
2023-02-27T01:35:29.777Z,5.90
2023-02-27T01:39:32.994Z,8.57
2023-02-27T01:43:52.972Z,4.32
2023-02-27T01:48:01.019Z,5.35
2023-02-27T01:52:07.945Z,4.72
2023-02-27T01:56:36.302Z,8.00
2023-02-27T02:00:38.881Z,6.45
2023-02-27T02:04:41.157Z,6.78
2023-02-27T02:08:46.656Z,6.45
2023-02-27T02:12:48.596Z,4.97
2023-02-27T02:17:12.858Z,3.33
2023-02-27T02:21:32.718Z,5.32
2023-02-27T02:25:55.533Z,7.30
2023-02-27T02:30:12.798Z,6.53
2023-02-27T02:34:45.323Z,4.03
2023-02-27T02:38:51.671Z,5.78
2023-02-27T02:43:19.813Z,4.90
2023-02-27T02:47:36.522Z,4.32
2023-02-27T02:51:49.253Z,5.20
2023-02-27T03:00:07.959Z,9.77
2023-02-27T03:04:15.834Z,5.53
2023-02-27T03:08:24.784Z,5.25
2023-02-27T03:12:27.952Z,6.55
2023-02-27T03:16:36.200Z,3.28
2023-02-27T03:20:43.035Z,3.80
2023-02-27T03:24:47.107Z,6.25
2023-02-27T03:29:06.489Z,4.85
2023-02-27T03:33:15.333Z,3.50
2023-02-27T03:37:41.901Z,5.30
2023-02-27T03:41:57.506Z,2.75
2023-02-27T03:46:24.746Z,6.32
2023-02-27T03:50:27.044Z,4.22
2023-02-27T03:54:34.687Z,5.88
2023-02-27T03:58:36.386Z,3.15
2023-02-27T04:02:39.844Z,3.95
2023-02-27T04:07:07.307Z,3.60
2023-02-27T04:11:30.500Z,4.38
2023-02-27T04:16:09.841Z,3.50
2023-02-27T04:20:27.092Z,4.25
2023-02-27T04:24:52.449Z,4.40
2023-02-27T04:28:59.769Z,3.72
2023-02-27T04:33:17.606Z,4.90
2023-02-27T04:37:26.160Z,5.20
2023-02-27T04:41:34.843Z,4.88
2023-02-27T04:45:41.334Z,3.88
2023-02-27T04:49:57.169Z,2.65
2023-02-27T04:54:01.632Z,3.53
2023-02-27T04:58:10.323Z,3.53
2023-02-27T05:02:25.020Z,5.78
2023-02-27T05:06:31.487Z,3.55
2023-02-27T05:10:58.760Z,4.50
2023-02-27T05:15:07.971Z,5.30
2023-02-27T05:19:10.638Z,3.85
2023-02-27T05:27:33.534Z,3.60
2023-02-27T05:31:52.783Z,8.25
2023-02-27T05:36:06.285Z,4.50
2023-02-27T05:40:10.918Z,4.97
2023-02-27T05:44:19.238Z,3.60
2023-02-27T05:48:28.512Z,2.40
2023-02-27T05:52:31.872Z,2.70
2023-02-27T05:56:36.026Z,3.47
2023-02-27T06:00:46.734Z,2.05
2023-02-27T06:04:48.314Z,3.28
2023-02-27T06:08:50.499Z,1.67
2023-02-27T06:12:52.887Z,2.80
2023-02-27T06:16:54.650Z,3.47
2023-02-27T06:20:56.469Z,4.43
2023-02-27T06:24:58.154Z,1.50
2023-02-27T06:29:00.865Z,7.07
2023-02-27T06:33:02.982Z,4.40
2023-02-27T06:37:05.387Z,10.73
2023-02-27T06:41:07.539Z,20.73
2023-02-27T06:45:10.538Z,9.75
2023-02-27T06:49:14.582Z,4.05
2023-02-27T06:53:17.834Z,5.15
2023-02-27T06:57:21.848Z,7.28
2023-02-27T07:01:26.845Z,7.13
2023-02-27T07:05:28.481Z,5.05
2023-02-27T07:09:30.841Z,5.75
2023-02-27T07:13:35.816Z,2.80
2023-02-27T07:17:41.807Z,5.47
2023-02-27T07:21:43.374Z,2.13
2023-02-27T07:25:47.068Z,2.53
2023-02-27T07:29:50.316Z,4.50
2023-02-27T07:33:53.173Z,3.85
2023-02-27T07:37:54.807Z,6.00
2023-02-27T07:41:56.345Z,3.70
2023-02-27T07:45:58.756Z,2.85
2023-02-27T07:50:01.117Z,3.95
2023-02-27T07:54:03.791Z,2.47
2023-02-27T07:58:09.477Z,5.35
2023-02-27T08:02:13.591Z,3.03
2023-02-27T08:06:15.238Z,2.75
2023-02-27T08:10:17.563Z,3.00
2023-02-27T08:14:20.541Z,4.68
2023-02-27T08:18:24.775Z,3.80
2023-02-27T08:22:27.275Z,4.25
2023-02-27T08:30:34.050Z,1.70
2023-02-27T08:34:36.728Z,1.98
2023-02-27T08:38:38.292Z,3.05
2023-02-27T08:42:40.383Z,2.70
2023-02-27T08:46:42.050Z,7.13
2023-02-27T08:50:46.737Z,3.55
2023-02-27T08:54:48.536Z,1.90
2023-02-27T08:58:50.681Z,0.95
2023-02-27T09:06:57.439Z,2.58
2023-02-27T09:11:00.678Z,2.08
2023-02-27T09:15:03.674Z,2.20
2023-02-27T09:19:07.776Z,1.80
2023-02-27T09:23:09.579Z,1.85
2023-02-27T09:27:11.426Z,2.72
2023-02-27T09:31:13.456Z,2.45
2023-02-27T09:35:20.307Z,3.17
2023-02-27T09:39:22.065Z,1.67
2023-02-27T09:43:34.680Z,1.80
2023-02-27T09:47:42.691Z,1.45
2023-02-27T09:51:44.695Z,3.55
2023-02-27T09:55:48.663Z,1.40
2023-02-27T10:00:26.904Z,2.33
2023-02-27T10:04:39.959Z,2.38
2023-02-27T10:08:42.666Z,1.77
2023-02-27T10:13:03.647Z,1.35
2023-02-27T10:17:14.644Z,2.05
2023-02-27T10:21:22.706Z,2.15
2023-02-27T10:25:31.814Z,3.20
2023-02-27T10:29:37.801Z,6.72
2023-02-27T10:33:42.822Z,6.30
2023-02-27T10:37:50.731Z,5.60
2023-02-27T10:41:52.774Z,4.38
2023-02-27T10:45:56.711Z,2.88
2023-02-27T10:50:00.585Z,2.42
2023-02-27T10:54:20.862Z,4.30
2023-02-27T10:58:23.181Z,5.38
2023-02-27T11:02:37.086Z,2.33
2023-02-27T11:06:39.649Z,5.93
2023-02-27T11:10:56.605Z,1.90
2023-02-27T11:15:22.049Z,1.88
2023-02-27T11:19:31.899Z,1.25
2023-02-27T11:23:34.619Z,0.65
2023-02-27T11:27:36.290Z,2.08
2023-02-27T11:31:40.762Z,2.45
2023-02-27T11:35:51.110Z,2.15
2023-02-27T11:40:15.648Z,2.47
2023-02-27T11:44:25.754Z,5.82
2023-02-27T11:49:01.195Z,3.58
2023-02-27T11:53:24.085Z,2.03
2023-02-27T11:57:38.768Z,1.17
2023-02-27T12:02:05.618Z,0.60
2023-02-27T12:06:17.630Z,3.33
2023-02-27T12:10:27.982Z,1.48
2023-02-27T12:15:15.594Z,2.08
2023-02-27T12:19:39.718Z,1.25
2023-02-27T12:23:47.139Z,0.90
2023-02-27T12:28:04.607Z,1.42
2023-02-27T12:32:25.833Z,1.13
2023-02-27T12:36:30.579Z,1.77
2023-02-27T12:40:44.593Z,1.25
2023-02-27T12:44:55.587Z,1.30
2023-02-27T12:49:19.592Z,1.38
2023-02-27T12:53:53.301Z,4.55
2023-02-27T12:58:20.183Z,4.03
2023-02-27T13:02:39.270Z,2.17
2023-02-27T13:06:49.119Z,2.35
2023-02-27T13:11:14.302Z,0.82
2023-02-27T13:15:25.548Z,3.10
2023-02-27T13:19:33.625Z,2.22
2023-02-27T13:23:49.962Z,1.33
2023-02-27T13:28:02.766Z,2.78
2023-02-27T13:32:32.769Z,0.95
2023-02-27T13:36:48.490Z,1.75
2023-02-27T13:40:50.943Z,1.98
2023-02-27T13:44:58.645Z,3.67
2023-02-27T13:49:20.018Z,2.08
2023-02-27T13:53:30.609Z,3.47
2023-02-27T13:57:37.824Z,0.85
2023-02-27T14:01:41.645Z,1.63
2023-02-27T14:05:48.616Z,1.55
2023-02-27T14:09:59.904Z,3.20
2023-02-27T14:14:04.715Z,1.33
2023-02-27T14:18:48.371Z,2.83
2023-02-27T14:23:14.798Z,1.77
2023-02-27T14:27:19.316Z,3.53
2023-02-27T14:31:32.748Z,2.80
2023-02-27T14:39:38.098Z,2.47
2023-02-27T14:43:45.966Z,1.70
2023-02-27T14:47:48.644Z,2.50
2023-02-27T14:51:50.831Z,2.58
2023-02-27T14:55:55.882Z,1.80
2023-02-27T14:59:58.595Z,1.65
2023-02-27T15:04:00.651Z,1.75
2023-02-27T15:08:06.357Z,4.38
2023-02-27T15:12:16.085Z,0.50
2023-02-27T15:16:23.645Z,1.67
2023-02-27T15:20:25.577Z,3.58
2023-02-27T15:24:49.577Z,4.03
2023-02-27T15:28:51.895Z,1.40
2023-02-27T15:32:55.791Z,2.07
2023-02-27T15:36:59.796Z,1.33
2023-02-27T15:41:03.355Z,0.82
2023-02-27T15:45:07.083Z,1.42
2023-02-27T15:49:16.551Z,6.70
2023-02-27T15:53:24.693Z,14.52
2023-02-27T15:57:26.903Z,14.40
2023-02-27T16:01:32.440Z,5.00
2023-02-27T16:05:36.785Z,2.55
2023-02-27T16:09:39.670Z,2.22
2023-02-27T16:13:41.896Z,2.35
2023-02-27T16:18:01.531Z,9.07
2023-02-27T16:22:22.350Z,33.95
2023-02-27T16:26:32.115Z,18.95
2023-02-27T16:30:33.837Z,5.13
2023-02-27T16:34:45.498Z,15.60
2023-02-27T16:38:47.641Z,5.17
2023-02-27T16:42:50.688Z,4.50
2023-02-27T16:46:54.362Z,1.08
2023-02-27T16:50:56.500Z,1.90
2023-02-27T16:59:01.580Z,1.23
2023-02-27T17:03:03.513Z,1.37
2023-02-27T17:07:06.672Z,1.63
2023-02-27T17:11:09.361Z,4.93
2023-02-27T17:15:11.385Z,3.05
2023-02-27T17:19:16.957Z,3.72
2023-02-27T17:23:18.941Z,4.88
2023-02-27T17:27:20.797Z,1.80
2023-02-27T17:31:23.215Z,2.20
2023-02-27T17:35:25.747Z,1.05
2023-02-27T17:39:27.816Z,3.55
2023-02-27T17:43:30.471Z,0.70
2023-02-27T17:47:33.572Z,1.90
2023-02-27T17:51:35.641Z,1.25
2023-02-27T17:55:42.019Z,1.92
2023-02-27T17:59:43.728Z,2.75
2023-02-27T18:03:45.836Z,1.13
2023-02-27T18:07:48.207Z,1.63
2023-02-27T18:11:49.859Z,0.97
2023-02-27T18:15:52.140Z,0.80
2023-02-27T18:19:54.428Z,1.75
2023-02-27T18:23:57.508Z,25.70
2023-02-27T18:27:59.386Z,21.98
2023-02-27T18:32:00.988Z,136.95
2023-02-27T18:36:03.458Z,69.70
2023-02-27T18:40:06.791Z,69.78
2023-02-27T18:44:09.447Z,42.47
2023-02-27T18:48:11.185Z,38.85
2023-02-27T18:52:12.789Z,21.65
2023-02-27T18:56:17.023Z,9.93
2023-02-27T19:00:21.594Z,9.48
2023-02-27T19:04:25.542Z,11.52
2023-02-27T19:08:31.666Z,5.78
2023-02-27T19:12:35.413Z,12.68
2023-02-27T19:16:38.868Z,17.23
2023-02-27T19:24:42.418Z,11.65
2023-02-27T19:28:44.051Z,5.18
2023-02-27T19:32:45.718Z,3.40
2023-02-27T19:36:48.412Z,4.80
2023-02-27T19:40:51.378Z,17.42
2023-02-27T19:44:54.385Z,6.55
2023-02-27T19:49:02.377Z,2.67
2023-02-27T19:53:04.582Z,2.80
2023-02-27T19:57:06.383Z,3.33
2023-02-27T20:01:09.841Z,4.80
2023-02-27T20:05:12.175Z,4.93
2023-02-27T20:09:17.134Z,2.97
2023-02-27T20:13:18.956Z,3.38
2023-02-27T20:17:20.509Z,3.80
2023-02-27T20:21:25.677Z,1.30
2023-02-27T20:25:29.473Z,1.42
2023-02-27T20:29:31.911Z,3.10
2023-02-27T20:33:33.584Z,2.03
2023-02-27T20:37:36.383Z,3.78
2023-02-27T20:45:40.663Z,3.67
2023-02-27T20:49:42.285Z,1.33
2023-02-27T20:53:47.364Z,1.73
2023-02-27T20:57:49.348Z,1.48
2023-02-27T21:01:52.920Z,2.60
2023-02-27T21:06:00.089Z,2.17
2023-02-27T21:10:01.797Z,1.25
2023-02-27T21:14:12.634Z,3.20
2023-02-27T21:18:14.977Z,2.35
2023-02-27T21:22:17.162Z,1.60
2023-02-27T21:26:21.824Z,0.75
2023-02-27T21:30:23.393Z,1.95
2023-02-27T21:34:27.365Z,2.58
2023-02-27T21:38:29.498Z,4.80
2023-02-27T21:42:31.713Z,2.40
2023-02-27T21:46:34.985Z,3.30
2023-02-27T21:50:37.231Z,2.08
2023-02-27T21:54:39.887Z,2.80
2023-02-27T21:58:42.011Z,2.30
2023-02-27T22:02:43.813Z,2.22
2023-02-27T22:06:46.128Z,2.37
2023-02-27T22:10:47.729Z,2.22
2023-02-27T22:14:49.829Z,3.13
2023-02-27T22:18:51.843Z,1.50
2023-02-27T22:22:53.428Z,1.40
2023-02-27T22:26:55.586Z,1.87
2023-02-27T22:31:16.191Z,1.43
2023-02-27T22:35:17.939Z,4.50
2023-02-27T22:39:20.060Z,1.50
2023-02-27T22:43:21.840Z,2.10
2023-02-27T22:47:23.416Z,2.45
2023-02-27T22:51:27.862Z,3.00
2023-02-27T22:55:29.832Z,3.58
2023-02-27T22:59:31.370Z,2.00
2023-02-27T23:03:32.988Z,5.97
2023-02-27T23:07:35.191Z,2.45
2023-02-27T23:11:36.826Z,2.03
2023-02-27T23:15:39.116Z,2.13
2023-02-27T23:19:40.853Z,3.63
2023-02-27T23:23:43.081Z,3.10
2023-02-27T23:27:44.643Z,3.40
2023-02-27T23:31:46.705Z,2.13
2023-02-27T23:35:48.493Z,2.40
2023-02-27T23:39:50.089Z,3.78
2023-02-27T23:44:11.805Z,5.15
2023-02-27T23:48:13.717Z,6.70
2023-02-27T23:52:15.256Z,1.60
2023-02-27T23:56:18.347Z,3.10
